KMUI/MUI METAR and TAF weather

Enter ICAO airport designator
Station Type Date Time Source
KMUI METAR 2020/07/08 20:56 UTC NOAA

KMUI 082056Z 07005KT 10SM FEW020 FEW050 SCT130 BKN160 27/23 A2996 RMK AO2A LTG DSNT SE SLP145 60094 T02650225 58008


Station Type Date Time Source
KMUI Decoded METAR 2020/07/08 20:56 UTC NOAA

Muir Army Air Field / Indiantown, PA, United States (KMUI) 40-26N 076-34W
Jul 08, 2020 - 04:56 PM EDT / 2020.07.08 2056 UTC
Wind: from the ENE (070 degrees) at 6 MPH (5 KT):0
Visibility: 10 mile(s):0
Sky conditions: mostly cloudy
Weather: Lightning observed
Temperature: 79.7 F (26.5 C)
Dew Point: 72.5 F (22.5 C)
Relative Humidity: 78%
Pressure (altimeter): 29.96 in. Hg (1014 hPa)
Pressure tendency: 0.02 inches (0.8 hPa) lower than three hours ago
ob: KMUI 082056Z 07005KT 10SM FEW020 FEW050 SCT130 BKN160 27/23 A2996 RMK AO2A LTG DSNT SE SLP145 60094 T02650225 58008
cycle: 21

Station Type Date Time Source
KMUI TAF 2020/07/08 19:12 UTC NOAA

TAF TAF KMUI 081900Z 0819/1001 22006KT 9999 BKN030 QNH2995INS
TEMPO 0819/0820 VRB20G30KT 1000 -TSRA BKN025CB
TEMPO 0820/0824 VRB20G30KT 6000 -TSRA BKN025CB
BECMG 0823/0824 VRB06KT 9999 SCT045 QNH2994INS
BECMG 0903/0904 13006KT 4800 BR BKN010 QNH2995INS
BECMG 0915/0916 12006KT 9999 NSW SCT015 QNH2996INS TX30/0919Z TN20/0910Z LAST NO
AMDS AFT 0905 NEXT 0911

Example: see airport list